<?xml version="1.0" encoding="UTF-8" standalone="no" ?>
<gpx xmlns="http://www.topografix.com/GPX/1/1" xmlns:xsi="http://www.w3.org/2001/XMLSchema-instance" xsi:schemaLocation="http://www.topografix.com/GPX/1/1 http://www.topografix.com/GPX/1/1/gpx.xsd" version="1.1" creator="VisuGPX - https://www.visugpx.com">
  <metadata>
    <name>14411616-BOIS DE ROCHEFORT 23</name>
  </metadata>
  <trk>
    <name><![CDATA[14411616-BOIS DE ROCHEFORT 23]]></name>
    <trkseg>
      <trkpt lat="48.59158" lon="1.96604">
        <ele>120</ele>
        <time>2022-03-15T17:55:50Z</time>
      </trkpt>
      <trkpt lat="48.59146" lon="1.96746">
        <ele>123</ele>
        <time>2022-03-15T17:57:06Z</time>
      </trkpt>
      <trkpt lat="48.59108" lon="1.9688">
        <ele>121</ele>
        <time>2022-03-15T17:58:23Z</time>
      </trkpt>
      <trkpt lat="48.5907" lon="1.97013">
        <ele>121</ele>
        <time>2022-03-15T17:59:40Z</time>
      </trkpt>
      <trkpt lat="48.59026" lon="1.97095">
        <ele>120</ele>
        <time>2022-03-15T18:00:36Z</time>
      </trkpt>
      <trkpt lat="48.59022" lon="1.97201">
        <ele>121</ele>
        <time>2022-03-15T18:01:32Z</time>
      </trkpt>
      <trkpt lat="48.59042" lon="1.97274">
        <ele>122</ele>
        <time>2022-03-15T18:02:14Z</time>
      </trkpt>
      <trkpt lat="48.5911" lon="1.97323">
        <ele>125</ele>
        <time>2022-03-15T18:03:14Z</time>
      </trkpt>
      <trkpt lat="48.59403" lon="1.96698">
        <ele>143</ele>
        <time>2022-03-15T18:10:00Z</time>
      </trkpt>
      <trkpt lat="48.59423" lon="1.96767">
        <ele>148</ele>
        <time>2022-03-15T18:10:40Z</time>
      </trkpt>
      <trkpt lat="48.59451" lon="1.96846">
        <ele>152</ele>
        <time>2022-03-15T18:11:27Z</time>
      </trkpt>
      <trkpt lat="48.59405" lon="1.96892">
        <ele>155</ele>
        <time>2022-03-15T18:12:11Z</time>
      </trkpt>
      <trkpt lat="48.59413" lon="1.96943">
        <ele>157</ele>
        <time>2022-03-15T18:12:39Z</time>
      </trkpt>
      <trkpt lat="48.59425" lon="1.97019">
        <ele>158</ele>
        <time>2022-03-15T18:13:20Z</time>
      </trkpt>
      <trkpt lat="48.59433" lon="1.97095">
        <ele>157</ele>
        <time>2022-03-15T18:14:01Z</time>
      </trkpt>
      <trkpt lat="48.59437" lon="1.97162">
        <ele>156</ele>
        <time>2022-03-15T18:14:37Z</time>
      </trkpt>
      <trkpt lat="48.59425" lon="1.97241">
        <ele>153</ele>
        <time>2022-03-15T18:15:20Z</time>
      </trkpt>
      <trkpt lat="48.59451" lon="1.97308">
        <ele>146</ele>
        <time>2022-03-15T18:16:01Z</time>
      </trkpt>
      <trkpt lat="48.59481" lon="1.97426">
        <ele>141</ele>
        <time>2022-03-15T18:17:08Z</time>
      </trkpt>
      <trkpt lat="48.59537" lon="1.9735">
        <ele>141</ele>
        <time>2022-03-15T18:18:08Z</time>
      </trkpt>
      <trkpt lat="48.59746" lon="1.97232">
        <ele>133</ele>
        <time>2022-03-15T18:21:07Z</time>
      </trkpt>
      <trkpt lat="48.59959" lon="1.97144">
        <ele>140</ele>
        <time>2022-03-15T18:24:03Z</time>
      </trkpt>
      <trkpt lat="48.60113" lon="1.97059">
        <ele>140</ele>
        <time>2022-03-15T18:26:15Z</time>
      </trkpt>
      <trkpt lat="48.60252" lon="1.97107">
        <ele>127</ele>
        <time>2022-03-15T18:28:09Z</time>
      </trkpt>
      <trkpt lat="48.60156" lon="1.97338">
        <ele>146</ele>
        <time>2022-03-15T18:30:33Z</time>
      </trkpt>
      <trkpt lat="48.60352" lon="1.97526">
        <ele>123</ele>
        <time>2022-03-15T18:33:39Z</time>
      </trkpt>
      <trkpt lat="48.60156" lon="1.97939">
        <ele>116</ele>
        <time>2022-03-15T18:38:08Z</time>
      </trkpt>
      <trkpt lat="48.60336" lon="1.98151">
        <ele>110</ele>
        <time>2022-03-15T18:41:11Z</time>
      </trkpt>
      <trkpt lat="48.6039" lon="1.982">
        <ele>108</ele>
        <time>2022-03-15T18:42:01Z</time>
      </trkpt>
      <trkpt lat="48.60326" lon="1.9827">
        <ele>113</ele>
        <time>2022-03-15T18:43:05Z</time>
      </trkpt>
      <trkpt lat="48.60292" lon="1.98303">
        <ele>115</ele>
        <time>2022-03-15T18:43:37Z</time>
      </trkpt>
      <trkpt lat="48.60246" lon="1.98318">
        <ele>117</ele>
        <time>2022-03-15T18:44:15Z</time>
      </trkpt>
      <trkpt lat="48.60206" lon="1.98355">
        <ele>117</ele>
        <time>2022-03-15T18:44:52Z</time>
      </trkpt>
      <trkpt lat="48.60162" lon="1.98355">
        <ele>119</ele>
        <time>2022-03-15T18:45:27Z</time>
      </trkpt>
      <trkpt lat="48.60051" lon="1.98458">
        <ele>123</ele>
        <time>2022-03-15T18:47:12Z</time>
      </trkpt>
      <trkpt lat="48.59993" lon="1.98467">
        <ele>124</ele>
        <time>2022-03-15T18:47:58Z</time>
      </trkpt>
      <trkpt lat="48.59884" lon="1.98304">
        <ele>135</ele>
        <time>2022-03-15T18:50:01Z</time>
      </trkpt>
      <trkpt lat="48.59739" lon="1.98207">
        <ele>147</ele>
        <time>2022-03-15T18:52:08Z</time>
      </trkpt>
      <trkpt lat="48.59631" lon="1.9811">
        <ele>156</ele>
        <time>2022-03-15T18:53:49Z</time>
      </trkpt>
      <trkpt lat="48.59509" lon="1.97993">
        <ele>163</ele>
        <time>2022-03-15T18:55:44Z</time>
      </trkpt>
      <trkpt lat="48.59563" lon="1.98187">
        <ele>156</ele>
        <time>2022-03-15T18:57:36Z</time>
      </trkpt>
      <trkpt lat="48.59661" lon="1.9834">
        <ele>149</ele>
        <time>2022-03-15T18:59:29Z</time>
      </trkpt>
      <trkpt lat="48.59692" lon="1.98452">
        <ele>148</ele>
        <time>2022-03-15T19:00:33Z</time>
      </trkpt>
      <trkpt lat="48.59698" lon="1.9859">
        <ele>144</ele>
        <time>2022-03-15T19:01:46Z</time>
      </trkpt>
      <trkpt lat="48.59685" lon="1.98712">
        <ele>132</ele>
        <time>2022-03-15T19:02:52Z</time>
      </trkpt>
      <trkpt lat="48.59617" lon="1.98717">
        <ele>130</ele>
        <time>2022-03-15T19:03:46Z</time>
      </trkpt>
      <trkpt lat="48.59563" lon="1.98804">
        <ele>128</ele>
        <time>2022-03-15T19:04:49Z</time>
      </trkpt>
      <trkpt lat="48.59509" lon="1.98799">
        <ele>126</ele>
        <time>2022-03-15T19:05:33Z</time>
      </trkpt>
      <trkpt lat="48.59384" lon="1.9858">
        <ele>121</ele>
        <time>2022-03-15T19:08:06Z</time>
      </trkpt>
      <trkpt lat="48.59293" lon="1.98483">
        <ele>122</ele>
        <time>2022-03-15T19:09:35Z</time>
      </trkpt>
      <trkpt lat="48.59145" lon="1.9835">
        <ele>124</ele>
        <time>2022-03-15T19:11:53Z</time>
      </trkpt>
      <trkpt lat="48.59243" lon="1.98039">
        <ele>136</ele>
        <time>2022-03-15T19:14:55Z</time>
      </trkpt>
      <trkpt lat="48.59361" lon="1.98013">
        <ele>156</ele>
        <time>2022-03-15T19:16:31Z</time>
      </trkpt>
      <trkpt lat="48.59374" lon="1.97921">
        <ele>156</ele>
        <time>2022-03-15T19:17:21Z</time>
      </trkpt>
      <trkpt lat="48.59337" lon="1.97789">
        <ele>157</ele>
        <time>2022-03-15T19:18:36Z</time>
      </trkpt>
      <trkpt lat="48.59398" lon="1.97707">
        <ele>157</ele>
        <time>2022-03-15T19:19:42Z</time>
      </trkpt>
      <trkpt lat="48.59449" lon="1.97615">
        <ele>148</ele>
        <time>2022-03-15T19:20:45Z</time>
      </trkpt>
      <trkpt lat="48.59658" lon="1.97783">
        <ele>137</ele>
        <time>2022-03-15T19:23:55Z</time>
      </trkpt>
      <trkpt lat="48.59864" lon="1.97983">
        <ele>142</ele>
        <time>2022-03-15T19:27:11Z</time>
      </trkpt>
      <trkpt lat="48.59978" lon="1.97722">
        <ele>120</ele>
        <time>2022-03-15T19:29:57Z</time>
      </trkpt>
      <trkpt lat="48.5981" lon="1.97375">
        <ele>127</ele>
        <time>2022-03-15T19:33:44Z</time>
      </trkpt>
      <trkpt lat="48.59708" lon="1.97161">
        <ele>135</ele>
        <time>2022-03-15T19:36:04Z</time>
      </trkpt>
      <trkpt lat="48.59665" lon="1.97023">
        <ele>139</ele>
        <time>2022-03-15T19:37:25Z</time>
      </trkpt>
      <trkpt lat="48.59729" lon="1.96911">
        <ele>145</ele>
        <time>2022-03-15T19:38:43Z</time>
      </trkpt>
      <trkpt lat="48.60188" lon="1.97324">
        <ele>144</ele>
        <time>2022-03-15T19:45:51Z</time>
      </trkpt>
      <trkpt lat="48.60306" lon="1.96987">
        <ele>128</ele>
        <time>2022-03-15T19:49:13Z</time>
      </trkpt>
      <trkpt lat="48.60228" lon="1.96742">
        <ele>134</ele>
        <time>2022-03-15T19:51:37Z</time>
      </trkpt>
      <trkpt lat="48.60205" lon="1.96538">
        <ele>137</ele>
        <time>2022-03-15T19:53:26Z</time>
      </trkpt>
      <trkpt lat="48.60164" lon="1.96242">
        <ele>137</ele>
        <time>2022-03-15T19:56:06Z</time>
      </trkpt>
      <trkpt lat="48.60137" lon="1.96069">
        <ele>136</ele>
        <time>2022-03-15T19:57:40Z</time>
      </trkpt>
      <trkpt lat="48.60107" lon="1.95895">
        <ele>125</ele>
        <time>2022-03-15T19:59:16Z</time>
      </trkpt>
      <trkpt lat="48.60012" lon="1.95701">
        <ele>126</ele>
        <time>2022-03-15T20:01:23Z</time>
      </trkpt>
      <trkpt lat="48.5986" lon="1.95696">
        <ele>127</ele>
        <time>2022-03-15T20:03:25Z</time>
      </trkpt>
      <trkpt lat="48.596" lon="1.96303">
        <ele>155</ele>
        <time>2022-03-15T20:09:48Z</time>
      </trkpt>
      <trkpt lat="48.59438" lon="1.96635">
        <ele>145</ele>
        <time>2022-03-15T20:13:27Z</time>
      </trkpt>
      <trkpt lat="48.5932" lon="1.96502">
        <ele>133</ele>
        <time>2022-03-15T20:15:24Z</time>
      </trkpt>
      <trkpt lat="48.59249" lon="1.96513">
        <ele>127</ele>
        <time>2022-03-15T20:16:22Z</time>
      </trkpt>
      <trkpt lat="48.59226" lon="1.96528">
        <ele>125</ele>
        <time>2022-03-15T20:16:42Z</time>
      </trkpt>
    </trkseg>
  </trk>
</gpx>